Dunwoody, Georgia
Current Conditions -  °F | °C
As of 6:18 AM on Monday 22 Dec 2014 (Local Time) from KPDK Reporting Station
Haze Haze  
Wind Chill:   Ceiling: 500
Heat Index:   Visibility: 3mi
Dew Point:   Wind: 6mph
Humidity: 100%   Direction: NA
Pressure: 30.03"   Gusts: NA
Location:  33.95°N, 84.33°W
Report Text: KPDK 221118Z VRB05KT 3SM BR OVC005 06/06 A3003 RMK AO2
Loading
Personal Weather Stations






























Interactive Weather Map New forecast layout! Learn more

10-Day Weather Forecast

Advertisements
Track Severe Weather on mobile